Terminal Aerodrome Forecast
Issued by NWS Jacksonville, FL

Home | Current Version | Previous Version | Text Only | Print | Product List | Glossary On
Versions: 1 2 3 4 5 6 7 8 9 10 11 12 13 14 15 16 17 18 19 20 21 22
000
FTUS42 KJAX 190219 AAA
TAFGNV
TAF AMD
KGNV 190219Z 1902/1924 VRB02KT P6SM SCT003 BKN200
      TEMPO 1902/1906 5SM BR BKN003
     FM191400 24002KT P6SM VCSH FEW012 SCT020
     FM191600 25005KT P6SM VCTS SCT040CB BKN250 PROB30 1917/1922 3SM
      TSRA BKN035CB=

USA.gov is the U.S. government's official web portal to all federal, state and local government web resources and services.